EDT,Max TemperatureF,Mean TemperatureF,Min TemperatureF,Max Dew PointF,MeanDew PointF,Min DewpointF,Max Humidity, Mean Humidity, Min Humidity, Max Sea Level PressureIn, Mean Sea Level PressureIn, Min Sea Level PressureIn, Max VisibilityMiles, Mean VisibilityMiles, Min VisibilityMiles, Max Wind SpeedMPH, Mean Wind SpeedMPH, Max Gust SpeedMPH,PrecipitationIn, CloudCover, Events, WindDirDegrees
2013-3-1,45,40,34,32,29,25,89,69,49,29.74,29.66,29.56,10,10,10,16,11,22,0.00,7,,323
2013-3-2,42,37,32,27,23,22,69,59,48,29.74,29.71,29.66,10,10,9,18,11,23,T,7,Snow,320
2013-3-3,37,34,30,24,20,18,78,63,47,29.70,29.67,29.62,10,10,9,20,13,26,T,7,Snow,320
2013-3-4,42,35,28,19,18,15,63,51,39,29.84,29.75,29.71,10,10,10,25,16,33,0.00,3,,302
2013-3-5,47,39,31,29,24,19,64,51,37,30.01,29.97,29.86,10,10,10,20,10,25,0.00,3,,345
2013-3-6,42,39,35,34,30,29,82,71,60,29.99,29.88,29.82,10,9,2,39,20,49,0.05,7,Rain-Snow,50
2013-3-7,37,35,32,31,30,27,89,80,70,30.01,29.92,29.84,10,3,1,33,20,45,0.24,8,Rain-Snow,360
2013-3-8,39,35,31,32,29,25,92,78,64,30.12,30.00,29.93,10,4,1,23,15,28,0.36,8,Rain-Snow,340
2013-3-9,53,41,28,31,24,21,85,58,30,30.32,30.21,30.11,10,10,8,20,10,25,0.00,1,,346
2013-3-10,44,35,26,34,30,23,92,75,58,30.38,30.34,30.31,10,10,8,12,6,16,0.00,4,,120
2013-3-11,52,44,35,45,39,32,92,80,68,30.31,30.22,30.11,10,10,5,16,8,23,0.00,7,,153
2013-3-12,52,48,44,52,47,37,100,86,71,30.10,29.85,29.70,10,5,0,26,15,39,0.75,7,Fog-Rain,180
2013-3-13,51,42,32,38,29,21,92,63,34,29.86,29.82,29.77,10,10,10,18,9,24,0.00,4,,308
2013-3-14,38,34,30,27,12,5,64,47,29,29.91,29.85,29.82,10,10,10,32,18,40,0.00,4,,301
2013-3-15,45,37,29,27,17,5,54,41,27,29.94,29.83,29.71,10,10,10,20,13,32,0.00,5,,273
2013-3-16,39,35,30,29,25,19,85,67,48,29.88,29.81,29.76,10,6,0,17,5,24,0.07,7,Fog-Snow,1
2013-3-17,37,31,25,29,18,11,88,62,35,30.29,30.09,29.90,10,10,10,18,8,23,0.00,6,,334
2013-3-18,37,31,25,31,18,9,89,64,38,30.40,30.26,30.03,10,8,1,24,12,31,0.31,6,Rain-Snow,70
2013-3-19,40,37,34,36,34,30,92,86,79,30.02,29.75,29.64,10,7,2,22,12,31,0.51,7,Rain,16
2013-3-20,47,38,28,26,18,15,70,51,31,29.86,29.82,29.78,10,10,10,25,10,36,0.00,3,,282
2013-3-21,37,32,27,27,25,19,85,69,52,29.82,29.69,29.63,10,6,0,16,8,22,0.04,7,Snow,344
2013-3-22,43,35,26,20,17,13,63,49,34,29.83,29.75,29.70,10,10,10,22,11,29,0.00,4,,291
2013-3-23,47,39,30,20,18,15,63,46,28,29.89,29.82,29.76,10,10,10,30,15,39,0.00,1,,291
2013-3-24,46,37,27,26,20,17,64,51,37,29.92,29.82,29.72,10,10,10,18,7,25,0.00,4,,292
2013-3-25,41,38,34,32,28,25,82,67,51,29.70,29.55,29.43,10,9,4,33,12,43,0.11,6,Rain-Snow,51
2013-3-26,53,44,35,30,26,23,76,56,35,29.83,29.71,29.55,10,10,10,21,8,28,0.00,6,,312
2013-3-27,54,44,33,26,23,18,64,45,26,29.93,29.86,29.83,10,10,10,22,11,28,0.00,2,,303
2013-3-28,51,43,35,32,28,26,70,58,46,30.07,29.98,29.92,10,10,10,18,11,24,T,5,Rain,323
2013-3-29,56,48,39,31,27,23,62,47,32,30.11,30.08,30.02,10,10,10,16,10,21,T,4,,309
2013-3-30,58,46,34,33,27,18,79,51,22,30.14,30.10,30.06,10,10,10,18,8,24,0.00,1,,297
2013-3-31,53,42,31,45,36,28,92,71,50,30.12,29.94,29.64,10,7,1,23,10,30,0.13,6,Rain,145